Time;durP1;ratioP1;P1;durP2;ratioP2;P2;SDS_P1;SDS_P2;PMS_P1;PMS_P2;Temp;Humidity;BMP_temperature;BMP_pressure;BME280_temperature;BME280_humidity;BME280_pressure;Samples;Min_cycle;Max_cycle;Signal;HPM_P1;HPM_P2
2021/07/13 00:00:47;;;;;;;;;;;18.50;99.90;;;;;;5071783;28;19960;-90
2021/07/13 00:03:13;;;;;;;;;;;18.60;99.90;;;;;;5088044;28;19928;-91
2021/07/13 00:05:39;;;;;;;;;;;18.60;99.90;;;;;;5047998;28;20027;-90
2021/07/13 00:08:04;;;;;;;;;;;18.50;99.90;;;;;;5057499;28;20391;-91
2021/07/13 00:10:34;;;;;;;;;;;18.50;99.90;;;;;;5061653;28;19935;-90
2021/07/13 00:13:00;;;;;;;;;;;18.50;99.90;;;;;;5075268;28;19926;-90
2021/07/13 00:15:30;;;;;;;;;;;18.50;99.90;;;;;;5081611;28;19919;-90
2021/07/13 00:17:56;;;;;;;;;;;18.50;99.90;;;;;;5074687;28;19920;-90
2021/07/13 00:20:22;;;;;;;;;;;18.60;99.90;;;;;;5074892;28;20400;-91
2021/07/13 00:22:48;;;;;;;;;;;18.60;99.90;;;;;;5078729;28;19924;-91
2021/07/13 00:25:14;;;;;;;;;;;18.60;99.90;;;;;;5094453;28;19927;-90
2021/07/13 00:27:41;;;;;;;;;;;18.60;99.90;;;;;;5094965;28;19928;-90
2021/07/13 00:30:08;;;;;;;;;;;18.60;99.90;;;;;;5068631;28;19920;-90
2021/07/13 00:32:34;;;;;;;;;;;18.70;99.90;;;;;;5074658;28;19931;-90
2021/07/13 00:34:59;;;;;;;;;;;18.70;99.90;;;;;;5074327;28;19924;-90
2021/07/13 00:37:25;;;;;;;;;;;18.70;99.90;;;;;;5074564;28;20462;-90
2021/07/13 00:39:51;;;;;;;;;;;18.70;99.90;;;;;;5083248;28;19967;-91
2021/07/13 00:42:17;;;;;;;;;;;18.70;99.90;;;;;;5074559;28;19970;-91
2021/07/13 00:44:43;;;;;;;;;;;18.70;99.90;;;;;;5076300;28;19932;-90
2021/07/13 00:47:09;;;;;;;;;;;18.70;99.90;;;;;;5082344;28;20006;-91
2021/07/13 00:49:35;;;;;;;;;;;18.80;99.90;;;;;;5065941;28;19924;-90
2021/07/13 00:52:01;;;;;;;;;;;18.80;99.90;;;;;;5088146;28;19991;-90
2021/07/13 00:54:27;;;;;;;;;;;18.80;99.90;;;;;;5107836;28;19937;-90
2021/07/13 00:56:54;;;;;;;;;;;18.80;99.90;;;;;;5098639;28;20405;-90
2021/07/13 00:59:20;;;;;;;;;;;18.80;99.90;;;;;;5103208;28;19927;-90
2021/07/13 01:01:49;;;;;;;;;;;18.80;99.90;;;;;;5092607;28;19920;-91
2021/07/13 01:04:15;;;;;;;;;;;18.80;99.90;;;;;;5102095;28;20299;-90
2021/07/13 01:06:41;;;;;;;;;;;18.80;99.90;;;;;;5098756;28;19926;-91
2021/07/13 01:09:09;;;;;;;;;;;18.80;99.90;;;;;;5089245;28;20457;-90
2021/07/13 01:12:04;;;;;;;;;;;18.80;99.90;;;;;;5100524;28;19935;-91
2021/07/13 01:14:34;;;;;;;;;;;18.80;99.90;;;;;;5074594;28;20354;-91
2021/07/13 01:17:01;;;;;;;;;;;18.90;99.90;;;;;;5086226;28;19931;-90
2021/07/13 01:19:33;;;;;;;;;;;18.80;99.90;;;;;;5107460;28;19923;-90
2021/07/13 01:22:02;;;;;;;;;;;18.90;99.90;;;;;;5110124;28;19923;-90
2021/07/13 01:24:44;;;;;;;;;;;18.90;99.90;;;;;;5072676;28;19927;-91
2021/07/13 01:27:27;;;;;;;;;;;18.90;99.90;;;;;;5090296;28;19951;-89
2021/07/13 01:29:54;;;;;;;;;;;18.90;99.90;;;;;;5073599;28;19946;-90
2021/07/13 01:32:21;;;;;;;;;;;18.90;99.90;;;;;;5057229;28;19924;-89
2021/07/13 01:34:54;;;;;;;;;;;18.80;99.90;;;;;;5091356;28;19932;-90
2021/07/13 01:37:21;;;;;;;;;;;18.90;99.90;;;;;;5090611;28;20379;-91
2021/07/13 01:39:50;;;;;;;;;;;18.80;99.90;;;;;;5093887;28;19920;-91
2021/07/13 01:42:16;;;;;;;;;;;18.90;99.90;;;;;;5093032;28;20368;-90
2021/07/13 01:44:44;;;;;;;;;;;18.90;99.90;;;;;;5073189;28;19924;-90
2021/07/13 01:47:11;;;;;;;;;;;18.90;99.90;;;;;;5073263;28;19920;-90
2021/07/13 01:49:37;;;;;;;;;;;18.90;99.90;;;;;;5082140;28;19920;-90
2021/07/13 01:52:03;;;;;;;;;;;18.90;99.90;;;;;;5076511;28;20272;-91
2021/07/13 01:54:33;;;;;;;;;;;18.90;99.90;;;;;;5077300;28;19923;-90
2021/07/13 01:57:00;;;;;;;;;;;18.90;99.90;;;;;;5093632;28;19928;-90
2021/07/13 01:59:26;;;;;;;;;;;18.90;99.90;;;;;;5092916;28;19923;-91
2021/07/13 02:02:00;;;;;;;;;;;18.90;99.90;;;;;;5077072;28;19920;-90
2021/07/13 02:04:28;;;;;;;;;;;18.90;99.90;;;;;;5092285;28;20326;-90
2021/07/13 02:07:03;;;;;;;;;;;18.90;99.90;;;;;;5093106;28;19971;-90
2021/07/13 02:09:29;;;;;;;;;;;18.90;99.90;;;;;;5083057;28;19928;-90
2021/07/13 02:11:56;;;;;;;;;;;18.80;99.90;;;;;;5090070;28;19920;-90
2021/07/13 02:14:21;;;;;;;;;;;18.90;99.90;;;;;;5073059;28;19920;-91
2021/07/13 02:16:47;;;;;;;;;;;18.90;99.90;;;;;;5056159;28;19928;-90
2021/07/13 02:19:13;;;;;;;;;;;18.90;99.90;;;;;;5089051;28;20429;-90
2021/07/13 02:21:39;;;;;;;;;;;18.80;99.90;;;;;;5076107;28;20046;-91
2021/07/13 02:24:05;;;;;;;;;;;18.80;99.90;;;;;;5091825;28;19919;-90
2021/07/13 02:26:44;;;;;;;;;;;18.80;99.90;;;;;;5111314;28;20453;-91
2021/07/13 02:29:18;;;;;;;;;;;18.80;99.90;;;;;;5090274;28;20336;-91
2021/07/13 02:31:46;;;;;;;;;;;18.80;99.90;;;;;;5092247;28;19925;-90
2021/07/13 02:34:12;;;;;;;;;;;18.80;99.90;;;;;;5081279;28;19927;-90
2021/07/13 02:36:42;;;;;;;;;;;18.80;99.90;;;;;;5072484;28;19971;-90
2021/07/13 02:39:09;;;;;;;;;;;18.80;99.90;;;;;;5056298;28;19924;-90
2021/07/13 02:41:36;;;;;;;;;;;18.80;99.90;;;;;;5055044;28;19924;-90
2021/07/13 02:44:02;;;;;;;;;;;18.80;99.90;;;;;;5057040;28;19970;-90
2021/07/13 02:46:29;;;;;;;;;;;18.80;99.90;;;;;;5071602;28;19923;-91
2021/07/13 02:48:55;;;;;;;;;;;18.80;99.90;;;;;;5066142;28;20010;-91
2021/07/13 02:51:23;;;;;;;;;;;18.90;99.90;;;;;;5075645;28;19959;-90
2021/07/13 02:53:50;;;;;;;;;;;18.90;99.90;;;;;;5092668;28;19978;-91
2021/07/13 02:56:17;;;;;;;;;;;18.90;99.90;;;;;;5075370;28;19965;-90
2021/07/13 02:58:44;;;;;;;;;;;18.90;99.90;;;;;;5100005;28;20463;-90
2021/07/13 03:01:10;;;;;;;;;;;18.90;99.90;;;;;;5072257;28;20287;-90
2021/07/13 03:03:37;;;;;;;;;;;18.90;99.90;;;;;;5055621;28;19924;-90
2021/07/13 03:06:03;;;;;;;;;;;18.90;99.90;;;;;;5072305;28;19997;-90
2021/07/13 03:08:29;;;;;;;;;;;18.90;99.90;;;;;;5055536;28;20345;-90
2021/07/13 03:10:56;;;;;;;;;;;18.80;99.90;;;;;;5072047;28;19927;-90
2021/07/13 03:13:22;;;;;;;;;;;18.80;99.90;;;;;;5072263;28;19973;-90
2021/07/13 03:15:49;;;;;;;;;;;18.80;99.90;;;;;;5075446;28;20340;-90
2021/07/13 03:18:15;;;;;;;;;;;18.70;99.90;;;;;;5075235;28;19927;-90
2021/07/13 03:20:42;;;;;;;;;;;18.70;99.90;;;;;;5091954;28;19927;-90
2021/07/13 03:23:08;;;;;;;;;;;18.70;99.90;;;;;;5092289;28;20754;-91
2021/07/13 03:25:35;;;;;;;;;;;18.70;99.90;;;;;;5074944;28;19926;-91
2021/07/13 03:28:02;;;;;;;;;;;18.70;99.90;;;;;;5089979;28;19923;-90
2021/07/13 03:30:28;;;;;;;;;;;18.70;99.90;;;;;;5077984;28;20368;-90
2021/07/13 03:32:54;;;;;;;;;;;18.60;99.90;;;;;;5090228;28;19923;-91
2021/07/13 03:35:20;;;;;;;;;;;18.60;99.90;;;;;;5074425;28;20287;-90
2021/07/13 03:37:48;;;;;;;;;;;18.60;99.90;;;;;;5092418;28;20338;-90
2021/07/13 03:40:14;;;;;;;;;;;18.60;99.90;;;;;;5089990;28;20294;-90
2021/07/13 03:42:40;;;;;;;;;;;18.60;99.90;;;;;;5109439;28;19931;-90
2021/07/13 03:45:05;;;;;;;;;;;18.60;99.90;;;;;;5063885;28;19920;-91
2021/07/13 03:47:31;;;;;;;;;;;18.50;99.90;;;;;;5042299;28;19920;-90
2021/07/13 03:49:57;;;;;;;;;;;18.60;99.90;;;;;;5088742;28;19931;-90
2021/07/13 03:52:24;;;;;;;;;;;18.60;99.90;;;;;;5075132;28;19957;-90
2021/07/13 03:54:49;;;;;;;;;;;18.60;99.90;;;;;;5088917;28;19923;-90
2021/07/13 03:57:15;;;;;;;;;;;18.60;99.90;;;;;;5074901;28;19935;-91
2021/07/13 03:59:42;;;;;;;;;;;18.60;99.90;;;;;;5093309;28;19946;-90
2021/07/13 04:02:07;;;;;;;;;;;18.60;99.90;;;;;;5082637;28;19920;-90
2021/07/13 04:04:33;;;;;;;;;;;18.60;99.90;;;;;;5078946;28;19926;-91
2021/07/13 04:06:58;;;;;;;;;;;18.60;99.90;;;;;;5074671;28;20337;-90
2021/07/13 04:09:24;;;;;;;;;;;18.60;99.90;;;;;;5067088;28;19973;-91
2021/07/13 04:11:50;;;;;;;;;;;18.60;99.90;;;;;;5095084;28;20450;-90
2021/07/13 04:14:16;;;;;;;;;;;18.60;99.90;;;;;;5095206;28;19916;-91
2021/07/13 04:16:41;;;;;;;;;;;18.60;99.90;;;;;;5061183;28;19967;-90
2021/07/13 04:19:07;;;;;;;;;;;18.60;99.90;;;;;;5078282;28;19992;-91
2021/07/13 04:21:33;;;;;;;;;;;18.60;99.90;;;;;;5077978;28;20002;-91
2021/07/13 04:23:59;;;;;;;;;;;18.60;99.90;;;;;;5094970;28;20451;-91
2021/07/13 04:26:24;;;;;;;;;;;18.60;99.90;;;;;;5074213;28;19931;-90
2021/07/13 04:28:50;;;;;;;;;;;18.60;99.90;;;;;;5058339;28;19947;-91
2021/07/13 04:31:17;;;;;;;;;;;18.60;99.90;;;;;;5058365;28;19950;-91
2021/07/13 04:33:43;;;;;;;;;;;18.70;99.90;;;;;;5058500;28;20296;-90
2021/07/13 04:36:09;;;;;;;;;;;18.70;99.90;;;;;;5073501;28;20022;-90
2021/07/13 04:38:35;;;;;;;;;;;18.70;99.90;;;;;;5077515;28;19920;-90
2021/07/13 04:41:00;;;;;;;;;;;18.70;99.90;;;;;;5077725;28;20306;-90
2021/07/13 04:43:26;;;;;;;;;;;18.70;99.90;;;;;;5094754;28;19924;-90
2021/07/13 04:45:52;;;;;;;;;;;18.70;99.90;;;;;;5060998;28;19924;-91
2021/07/13 04:48:17;;;;;;;;;;;18.70;99.90;;;;;;5078014;28;19931;-91
2021/07/13 04:50:43;;;;;;;;;;;18.70;99.90;;;;;;5074016;28;20009;-90
2021/07/13 04:53:09;;;;;;;;;;;18.70;99.90;;;;;;5077945;28;20371;-90
2021/07/13 04:55:35;;;;;;;;;;;18.70;99.90;;;;;;5078242;28;19986;-91
2021/07/13 04:58:00;;;;;;;;;;;18.70;99.90;;;;;;5074086;28;19966;-90
2021/07/13 05:00:27;;;;;;;;;;;18.80;99.90;;;;;;5057752;28;20375;-89
2021/07/13 05:02:52;;;;;;;;;;;18.70;99.90;;;;;;5075194;28;20007;-90
2021/07/13 05:05:18;;;;;;;;;;;18.80;99.90;;;;;;5053644;28;20018;-92
2021/07/13 05:07:45;;;;;;;;;;;18.80;99.90;;;;;;5079047;28;20038;-92
2021/07/13 05:10:12;;;;;;;;;;;18.80;99.90;;;;;;5058575;28;19935;-93
2021/07/13 05:12:38;;;;;;;;;;;18.80;99.90;;;;;;5073159;28;19925;-94
2021/07/13 05:15:08;;;;;;;;;;;18.80;99.90;;;;;;5063784;28;19924;-92
2021/07/13 05:17:35;;;;;;;;;;;18.70;99.90;;;;;;5052289;28;19970;-92
2021/07/13 05:20:01;;;;;;;;;;;18.80;99.90;;;;;;5036999;28;19924;-93
2021/07/13 05:22:28;;;;;;;;;;;18.80;99.90;;;;;;5052253;28;19917;-92
2021/07/13 05:24:54;;;;;;;;;;;18.80;99.90;;;;;;5052592;28;19971;-92
2021/07/13 05:27:19;;;;;;;;;;;18.80;99.90;;;;;;5071673;28;19952;-91
2021/07/13 05:29:45;;;;;;;;;;;18.80;99.90;;;;;;5071450;28;19920;-90
2021/07/13 05:32:11;;;;;;;;;;;18.90;99.90;;;;;;5050099;28;20352;-90
2021/07/13 05:34:36;;;;;;;;;;;18.80;99.90;;;;;;5042532;28;19951;-90
2021/07/13 05:37:04;;;;;;;;;;;18.80;99.90;;;;;;5059377;28;19928;-89
2021/07/13 05:39:30;;;;;;;;;;;18.80;99.90;;;;;;5044363;28;19985;-90
2021/07/13 05:41:55;;;;;;;;;;;18.80;99.90;;;;;;5058763;28;20474;-89
2021/07/13 05:44:21;;;;;;;;;;;18.80;99.90;;;;;;5059760;28;19927;-90
2021/07/13 05:46:47;;;;;;;;;;;18.90;99.90;;;;;;5058112;28;19987;-89
2021/07/13 05:49:12;;;;;;;;;;;18.90;99.90;;;;;;5070722;28;19946;-90
2021/07/13 05:51:38;;;;;;;;;;;18.90;99.90;;;;;;5069767;28;19930;-90
2021/07/13 05:54:04;;;;;;;;;;;18.90;99.90;;;;;;5067412;28;19929;-89
2021/07/13 05:56:30;;;;;;;;;;;18.90;99.90;;;;;;5064909;28;19924;-90
2021/07/13 05:58:56;;;;;;;;;;;18.90;99.90;;;;;;5034052;28;20074;-89
2021/07/13 06:01:24;;;;;;;;;;;18.90;99.90;;;;;;5050084;28;19982;-90
2021/07/13 06:03:49;;;;;;;;;;;18.90;99.90;;;;;;5054151;28;20027;-89
2021/07/13 06:06:15;;;;;;;;;;;18.90;99.90;;;;;;5053734;28;20015;-90
2021/07/13 06:08:41;;;;;;;;;;;18.90;99.90;;;;;;5070415;28;19932;-90
2021/07/13 06:11:06;;;;;;;;;;;18.90;99.90;;;;;;5070898;28;19924;-90
2021/07/13 06:13:32;;;;;;;;;;;18.90;99.90;;;;;;5069605;28;19967;-90
2021/07/13 06:15:58;;;;;;;;;;;18.90;99.90;;;;;;5053818;28;19925;-90
2021/07/13 06:18:24;;;;;;;;;;;18.90;99.90;;;;;;5053423;28;20353;-89
2021/07/13 06:20:49;;;;;;;;;;;18.90;99.90;;;;;;5069824;28;19978;-89
2021/07/13 06:23:15;;;;;;;;;;;19.00;99.90;;;;;;5071165;28;19970;-89
2021/07/13 06:25:42;;;;;;;;;;;18.90;99.90;;;;;;5066162;28;20380;-90
2021/07/13 06:28:08;;;;;;;;;;;18.90;99.90;;;;;;5051206;28;19925;-89
2021/07/13 06:30:34;;;;;;;;;;;19.00;99.90;;;;;;5078156;28;20055;-90
2021/07/13 06:33:00;;;;;;;;;;;18.90;99.90;;;;;;5054958;28;19940;-89
2021/07/13 06:35:26;;;;;;;;;;;18.90;99.90;;;;;;5063561;28;20401;-90
2021/07/13 06:37:52;;;;;;;;;;;18.90;99.90;;;;;;5058030;28;20007;-89
2021/07/13 06:40:18;;;;;;;;;;;19.00;99.90;;;;;;5073765;28;19948;-89
2021/07/13 06:42:43;;;;;;;;;;;19.00;99.90;;;;;;5073862;28;19984;-90
2021/07/13 06:45:10;;;;;;;;;;;19.00;99.90;;;;;;5057774;28;19930;-90
2021/07/13 06:47:35;;;;;;;;;;;19.00;99.90;;;;;;5074440;28;19925;-90
2021/07/13 06:50:01;;;;;;;;;;;19.00;99.90;;;;;;5056283;28;19986;-89
2021/07/13 06:52:27;;;;;;;;;;;19.00;99.90;;;;;;5058067;28;19927;-90
2021/07/13 06:54:53;;;;;;;;;;;19.00;99.90;;;;;;5073128;28;20018;-90
2021/07/13 06:57:21;;;;;;;;;;;19.00;99.90;;;;;;5047671;28;20124;-89
2021/07/13 06:59:46;;;;;;;;;;;19.00;99.90;;;;;;5049688;28;19989;-89
2021/07/13 07:02:12;;;;;;;;;;;19.00;99.90;;;;;;5049127;28;19931;-90
2021/07/13 07:04:39;;;;;;;;;;;19.00;99.90;;;;;;5045488;28;20346;-89
2021/07/13 07:07:04;;;;;;;;;;;19.00;99.90;;;;;;5052200;28;19924;-92
2021/07/13 07:09:30;;;;;;;;;;;19.00;99.90;;;;;;5052139;28;19920;-90
2021/07/13 07:11:55;;;;;;;;;;;19.00;99.90;;;;;;5040353;28;19928;-90
2021/07/13 07:14:21;;;;;;;;;;;19.00;99.90;;;;;;5043210;28;19932;-93
2021/07/13 07:16:47;;;;;;;;;;;19.00;99.90;;;;;;5045517;28;20379;-89
2021/07/13 07:19:12;;;;;;;;;;;19.00;99.90;;;;;;5064741;28;19971;-89
2021/07/13 07:21:38;;;;;;;;;;;19.00;99.90;;;;;;5051678;28;19948;-90
2021/07/13 07:24:04;;;;;;;;;;;19.10;99.90;;;;;;5052289;28;19921;-90
2021/07/13 07:26:30;;;;;;;;;;;19.10;99.90;;;;;;5034637;28;19951;-90
2021/07/13 07:28:55;;;;;;;;;;;19.10;99.90;;;;;;5034517;28;19921;-89
2021/07/13 07:31:21;;;;;;;;;;;19.10;99.90;;;;;;5050876;28;19925;-90
2021/07/13 07:33:47;;;;;;;;;;;19.10;99.90;;;;;;5039942;28;19925;-90
2021/07/13 07:36:13;;;;;;;;;;;19.10;99.90;;;;;;5051218;28;19923;-90
2021/07/13 07:38:40;;;;;;;;;;;19.10;99.90;;;;;;5036414;28;20015;-89
2021/07/13 07:41:06;;;;;;;;;;;19.10;99.90;;;;;;5054626;28;19977;-90
2021/07/13 07:43:31;;;;;;;;;;;19.10;99.90;;;;;;5070198;28;19993;-90
2021/07/13 07:45:57;;;;;;;;;;;19.10;99.90;;;;;;5034186;28;19920;-90
2021/07/13 07:48:23;;;;;;;;;;;19.10;99.90;;;;;;5035128;28;19925;-90
2021/07/13 07:50:48;;;;;;;;;;;19.10;99.90;;;;;;5071343;28;19927;-90
2021/07/13 07:53:14;;;;;;;;;;;19.10;99.90;;;;;;5044135;28;19924;-89
2021/07/13 07:55:40;;;;;;;;;;;19.10;99.90;;;;;;5089015;28;20379;-90
2021/07/13 07:58:06;;;;;;;;;;;19.10;99.90;;;;;;5065514;28;19921;-90
2021/07/13 08:00:31;;;;;;;;;;;19.20;99.90;;;;;;5020430;28;19931;-90
2021/07/13 08:02:57;;;;;;;;;;;19.20;99.90;;;;;;5035406;28;19939;-90
2021/07/13 08:05:26;;;;;;;;;;;19.20;99.90;;;;;;5035357;28;19920;-89
2021/07/13 08:07:52;;;;;;;;;;;19.20;99.90;;;;;;5019056;28;19920;-90
2021/07/13 08:10:18;;;;;;;;;;;19.30;99.90;;;;;;5078932;28;20448;-89
2021/07/13 08:12:44;;;;;;;;;;;19.30;99.90;;;;;;5058499;28;19919;-90
2021/07/13 08:15:10;;;;;;;;;;;19.30;99.90;;;;;;5092563;28;19920;-90
2021/07/13 08:17:36;;;;;;;;;;;19.30;99.90;;;;;;5078425;28;19932;-90
2021/07/13 08:20:02;;;;;;;;;;;19.30;99.90;;;;;;5078319;28;20047;-90
2021/07/13 08:22:29;;;;;;;;;;;19.30;99.90;;;;;;5095230;28;20405;-90
2021/07/13 08:24:55;;;;;;;;;;;19.40;99.90;;;;;;5074556;28;19952;-90
2021/07/13 08:27:21;;;;;;;;;;;19.40;99.90;;;;;;5081898;28;19932;-89
2021/07/13 08:29:47;;;;;;;;;;;19.40;99.90;;;;;;5091131;28;20321;-88
2021/07/13 08:32:13;;;;;;;;;;;19.40;99.90;;;;;;5074829;28;19924;-89
2021/07/13 08:34:39;;;;;;;;;;;19.40;99.90;;;;;;5058211;28;20406;-90
2021/07/13 08:37:05;;;;;;;;;;;19.40;99.90;;;;;;5074739;28;19928;-90
2021/07/13 08:39:31;;;;;;;;;;;19.40;99.90;;;;;;5074294;28;20329;-89
2021/07/13 08:41:57;;;;;;;;;;;19.40;99.90;;;;;;5057832;28;19954;-89
2021/07/13 08:44:23;;;;;;;;;;;19.40;99.90;;;;;;5057767;28;19924;-90
2021/07/13 08:46:49;;;;;;;;;;;19.40;99.90;;;;;;5074439;28;19917;-90
2021/07/13 08:49:14;;;;;;;;;;;19.40;99.90;;;;;;5074200;28;19930;-89
2021/07/13 08:51:41;;;;;;;;;;;19.50;99.90;;;;;;5065425;28;19927;-89
2021/07/13 08:54:07;;;;;;;;;;;19.50;99.90;;;;;;5093455;28;19920;-90
2021/07/13 08:56:33;;;;;;;;;;;19.50;99.90;;;;;;5079018;28;19920;-89
2021/07/13 08:58:59;;;;;;;;;;;19.50;99.90;;;;;;5057224;28;19924;-89
2021/07/13 09:01:25;;;;;;;;;;;19.50;99.90;;;;;;5074867;28;19928;-89
2021/07/13 09:04:04;;;;;;;;;;;19.50;99.90;;;;;;5057642;28;19928;-89
2021/07/13 09:06:47;;;;;;;;;;;19.50;99.90;;;;;;5074121;28;19924;-89
2021/07/13 09:09:20;;;;;;;;;;;19.50;99.90;;;;;;5092310;28;19961;-90
2021/07/13 09:11:52;;;;;;;;;;;19.50;99.90;;;;;;5111602;28;19928;-90
2021/07/13 09:14:18;;;;;;;;;;;19.50;99.90;;;;;;5093669;28;19924;-90
2021/07/13 09:16:44;;;;;;;;;;;19.50;99.90;;;;;;5060307;28;19920;-89
2021/07/13 09:19:09;;;;;;;;;;;19.60;99.90;;;;;;5076282;28;19974;-89
2021/07/13 09:21:35;;;;;;;;;;;19.60;99.90;;;;;;5076095;28;19979;-90
2021/07/13 09:24:03;;;;;;;;;;;19.60;99.90;;;;;;5075119;28;19920;-90
2021/07/13 09:26:34;;;;;;;;;;;19.60;99.90;;;;;;5086230;28;19924;-89
2021/07/13 09:29:00;;;;;;;;;;;19.60;99.90;;;;;;5073851;28;19924;-90
2021/07/13 09:31:26;;;;;;;;;;;19.60;99.90;;;;;;5060275;28;20384;-90
2021/07/13 09:33:52;;;;;;;;;;;19.60;99.90;;;;;;5075280;28;20383;-89
2021/07/13 09:36:18;;;;;;;;;;;19.60;99.90;;;;;;5080730;28;19924;-89
2021/07/13 09:38:47;;;;;;;;;;;19.60;99.90;;;;;;5072980;28;19920;-89
2021/07/13 09:41:17;;;;;;;;;;;19.60;99.90;;;;;;5106858;28;19931;-89
2021/07/13 09:43:53;;;;;;;;;;;19.70;99.90;;;;;;5089929;28;20018;-90
2021/07/13 09:46:29;;;;;;;;;;;19.60;99.90;;;;;;5090045;28;20329;-89
2021/07/13 09:49:09;;;;;;;;;;;19.60;99.90;;;;;;5076171;28;19932;-89
2021/07/13 09:51:35;;;;;;;;;;;19.70;99.90;;;;;;5073032;28;19946;-89
2021/07/13 09:54:01;;;;;;;;;;;19.70;99.90;;;;;;5087150;28;20366;-90
2021/07/13 09:56:39;;;;;;;;;;;19.70;99.90;;;;;;5089896;28;20010;-89
2021/07/13 09:59:05;;;;;;;;;;;19.70;99.90;;;;;;5059077;28;19963;-90
2021/07/13 10:01:32;;;;;;;;;;;19.70;99.90;;;;;;5090098;28;19947;-89
2021/07/13 10:03:58;;;;;;;;;;;19.70;99.90;;;;;;5073240;28;19928;-89
2021/07/13 10:06:24;;;;;;;;;;;19.70;99.90;;;;;;5065472;28;19920;-90
2021/07/13 10:08:52;;;;;;;;;;;19.70;99.90;;;;;;5076337;28;20320;-89
2021/07/13 10:11:18;;;;;;;;;;;19.70;99.90;;;;;;5067230;28;19931;-90
2021/07/13 10:13:44;;;;;;;;;;;19.70;99.90;;;;;;5090091;28;19930;-89
2021/07/13 10:16:09;;;;;;;;;;;19.70;99.90;;;;;;5071937;28;19924;-90
2021/07/13 10:18:35;;;;;;;;;;;19.70;99.90;;;;;;5064063;28;20337;-90
2021/07/13 10:21:01;;;;;;;;;;;19.70;99.90;;;;;;5055211;28;19920;-89
2021/07/13 10:23:28;;;;;;;;;;;19.70;99.90;;;;;;5071791;28;19977;-89
2021/07/13 10:25:55;;;;;;;;;;;19.70;99.90;;;;;;5072010;28;19924;-89
2021/07/13 10:28:30;;;;;;;;;;;19.80;99.90;;;;;;5073004;28;19955;-90
2021/07/13 10:30:56;;;;;;;;;;;19.80;99.90;;;;;;5072080;28;19924;-90
2021/07/13 10:33:27;;;;;;;;;;;19.80;99.90;;;;;;5055719;28;20066;-89
2021/07/13 10:35:53;;;;;;;;;;;19.70;99.90;;;;;;5071334;28;20011;-90
2021/07/13 10:38:23;;;;;;;;;;;19.80;99.90;;;;;;5055652;28;20383;-90
2021/07/13 10:40:51;;;;;;;;;;;19.80;99.90;;;;;;5071556;28;19920;-89
2021/07/13 10:43:17;;;;;;;;;;;19.80;99.90;;;;;;5055454;28;20022;-89
2021/07/13 10:45:43;;;;;;;;;;;19.80;99.90;;;;;;5089333;28;19920;-90
2021/07/13 10:48:09;;;;;;;;;;;19.80;99.90;;;;;;5075359;28;20287;-90
2021/07/13 10:50:57;;;;;;;;;;;19.80;99.90;;;;;;5087940;28;20391;-89
2021/07/13 10:53:23;;;;;;;;;;;19.80;99.90;;;;;;5076406;28;20015;-90
2021/07/13 10:55:55;;;;;;;;;;;19.80;99.90;;;;;;5092932;28;19926;-90
2021/07/13 10:58:22;;;;;;;;;;;19.80;99.90;;;;;;5075508;28;20376;-89
2021/07/13 11:00:47;;;;;;;;;;;19.80;99.90;;;;;;5058151;28;19920;-89
2021/07/13 11:03:28;;;;;;;;;;;19.80;99.90;;;;;;5093286;28;19926;-89
2021/07/13 11:05:55;;;;;;;;;;;19.80;99.90;;;;;;5093075;28;19932;-89
2021/07/13 11:08:49;;;;;;;;;;;19.90;99.90;;;;;;5091330;28;19930;-89
2021/07/13 11:11:15;;;;;;;;;;;19.90;99.90;;;;;;5028838;28;1808801;-90
2021/07/13 11:13:48;;;;;;;;;;;19.90;99.90;;;;;;5093979;28;19920;-88
2021/07/13 11:16:15;;;;;;;;;;;19.90;99.90;;;;;;5093261;28;19924;-90
2021/07/13 11:18:42;;;;;;;;;;;19.90;99.90;;;;;;5079691;28;20379;-89
2021/07/13 11:21:20;;;;;;;;;;;20.00;99.90;;;;;;5096407;28;19920;-90
2021/07/13 11:23:47;;;;;;;;;;;19.90;99.90;;;;;;5077370;28;19920;-89
2021/07/13 11:26:14;;;;;;;;;;;20.00;99.90;;;;;;5082440;28;19923;-90
2021/07/13 11:28:43;;;;;;;;;;;20.00;99.90;;;;;;5093654;28;19928;-90
2021/07/13 11:31:09;;;;;;;;;;;19.90;99.90;;;;;;5068166;28;19917;-89
2021/07/13 11:33:35;;;;;;;;;;;19.90;99.90;;;;;;5060284;28;19992;-89
2021/07/13 11:36:02;;;;;;;;;;;19.90;99.90;;;;;;5067385;28;20386;-90
2021/07/13 11:38:32;;;;;;;;;;;19.90;99.90;;;;;;5075923;28;20434;-90
2021/07/13 11:41:19;;;;;;;;;;;20.00;99.90;;;;;;5075394;28;19924;-89
2021/07/13 11:43:50;;;;;;;;;;;19.90;99.90;;;;;;5098326;28;19927;-89
2021/07/13 11:46:17;;;;;;;;;;;19.90;99.90;;;;;;5095910;28;20275;-89
2021/07/13 11:49:12;;;;;;;;;;;20.00;99.90;;;;;;5080566;28;20383;-90
2021/07/13 11:51:38;;;;;;;;;;;19.90;99.90;;;;;;5065802;28;20050;-89
2021/07/13 11:54:05;;;;;;;;;;;19.90;99.90;;;;;;5095010;28;20003;-89
2021/07/13 11:56:31;;;;;;;;;;;20.00;99.90;;;;;;5094936;28;19916;-90
2021/07/13 11:58:58;;;;;;;;;;;20.00;99.90;;;;;;5094958;28;20022;-90
2021/07/13 12:01:26;;;;;;;;;;;20.00;99.90;;;;;;5078539;28;20382;-90
2021/07/13 12:03:52;;;;;;;;;;;20.00;99.90;;;;;;5095045;28;19920;-90
2021/07/13 12:06:19;;;;;;;;;;;20.00;99.90;;;;;;5078775;28;19928;-89
2021/07/13 12:08:52;;;;;;;;;;;20.10;99.90;;;;;;5077788;28;20034;-89
2021/07/13 12:11:21;;;;;;;;;;;20.10;99.90;;;;;;5112279;28;19969;-89
2021/07/13 12:13:46;;;;;;;;;;;20.10;99.90;;;;;;5091791;28;19924;-90
2021/07/13 12:16:16;;;;;;;;;;;20.10;99.90;;;;;;5058539;28;20425;-89
2021/07/13 12:18:42;;;;;;;;;;;20.10;99.90;;;;;;5091932;28;19924;-90
2021/07/13 12:21:08;;;;;;;;;;;20.10;99.90;;;;;;5093681;28;19962;-89
2021/07/13 12:23:34;;;;;;;;;;;20.10;99.90;;;;;;5074562;28;20368;-90
2021/07/13 12:26:18;;;;;;;;;;;20.20;99.90;;;;;;5057566;28;20043;-89
2021/07/13 12:29:03;;;;;;;;;;;20.20;99.90;;;;;;5093436;28;19924;-90
2021/07/13 12:31:28;;;;;;;;;;;20.30;99.90;;;;;;5112778;28;19992;-89
2021/07/13 12:33:54;;;;;;;;;;;20.30;99.90;;;;;;5094842;28;20435;-90
2021/07/13 12:36:27;;;;;;;;;;;20.30;99.90;;;;;;5078065;28;19926;-90
2021/07/13 12:38:53;;;;;;;;;;;20.30;99.90;;;;;;5112323;28;19924;-90
2021/07/13 12:41:19;;;;;;;;;;;20.30;99.90;;;;;;5095315;28;19950;-89
2021/07/13 12:43:45;;;;;;;;;;;20.30;99.90;;;;;;5093369;28;20529;-90
2021/07/13 12:46:27;;;;;;;;;;;20.30;99.90;;;;;;5094302;28;19980;-91
2021/07/13 12:48:53;;;;;;;;;;;20.30;99.90;;;;;;5094374;28;20053;-90
2021/07/13 12:51:25;;;;;;;;;;;20.30;99.90;;;;;;5077779;28;20430;-90
2021/07/13 12:54:04;;;;;;;;;;;20.30;99.90;;;;;;5073684;28;19921;-90
2021/07/13 12:56:30;;;;;;;;;;;20.20;99.90;;;;;;5084764;28;19924;-90
2021/07/13 12:59:09;;;;;;;;;;;20.20;99.90;;;;;;5075905;28;19927;-90
2021/07/13 13:01:35;;;;;;;;;;;20.30;99.90;;;;;;5094548;28;19970;-90
2021/07/13 13:04:11;;;;;;;;;;;20.20;99.90;;;;;;5094372;28;19928;-90
2021/07/13 13:06:38;;;;;;;;;;;20.30;99.90;;;;;;5094592;28;20291;-89
2021/07/13 13:09:12;;;;;;;;;;;20.30;99.90;;;;;;5073482;28;19924;-90
2021/07/13 13:11:39;;;;;;;;;;;20.30;99.90;;;;;;5074348;28;19928;-89
2021/07/13 13:14:07;;;;;;;;;;;20.30;99.90;;;;;;5097259;28;19943;-90
2021/07/13 13:16:37;;;;;;;;;;;20.30;99.90;;;;;;5076779;28;19924;-90
2021/07/13 13:19:03;;;;;;;;;;;20.30;99.90;;;;;;5111376;28;19924;-90
2021/07/13 13:21:30;;;;;;;;;;;20.30;99.90;;;;;;5110875;28;19939;-90
2021/07/13 13:23:58;;;;;;;;;;;20.30;99.90;;;;;;5088876;28;19931;-90
2021/07/13 13:26:24;;;;;;;;;;;20.30;99.90;;;;;;5094105;28;19924;-89
2021/07/13 13:28:50;;;;;;;;;;;20.30;99.90;;;;;;5103257;28;19924;-90
2021/07/13 13:31:16;;;;;;;;;;;20.40;99.90;;;;;;5073636;28;19970;-90
2021/07/13 13:33:43;;;;;;;;;;;20.40;99.90;;;;;;5057467;28;19920;-90
2021/07/13 13:36:18;;;;;;;;;;;20.40;99.90;;;;;;5082384;28;20429;-90
2021/07/13 13:39:02;;;;;;;;;;;20.40;99.90;;;;;;5090376;28;20042;-90
2021/07/13 13:41:28;;;;;;;;;;;20.40;99.90;;;;;;5075339;28;20358;-90
2021/07/13 13:43:53;;;;;;;;;;;20.40;99.90;;;;;;5056710;28;20027;-89
2021/07/13 13:46:19;;;;;;;;;;;20.50;99.90;;;;;;5073167;28;19920;-90
2021/07/13 13:48:45;;;;;;;;;;;20.40;99.90;;;;;;5058012;28;20390;-90
2021/07/13 13:51:10;;;;;;;;;;;20.50;99.90;;;;;;5072949;28;20391;-89
2021/07/13 13:53:40;;;;;;;;;;;20.40;99.90;;;;;;5068716;28;19919;-91
2021/07/13 13:56:07;;;;;;;;;;;20.40;99.90;;;;;;5091918;28;19923;-90
2021/07/13 13:58:33;;;;;;;;;;;20.40;99.90;;;;;;5078838;28;19963;-90
2021/07/13 14:00:58;;;;;;;;;;;20.40;99.90;;;;;;5085301;28;19974;-90
2021/07/13 14:03:24;;;;;;;;;;;20.40;99.90;;;;;;5082260;28;19923;-90
2021/07/13 14:05:50;;;;;;;;;;;20.40;99.90;;;;;;5077315;28;19923;-90
2021/07/13 14:08:17;;;;;;;;;;;20.40;99.90;;;;;;5080070;28;20305;-89
2021/07/13 14:10:42;;;;;;;;;;;20.40;99.90;;;;;;5076800;28;19919;-90
2021/07/13 14:13:08;;;;;;;;;;;20.40;99.90;;;;;;5102261;28;19935;-90
2021/07/13 14:15:34;;;;;;;;;;;20.40;99.90;;;;;;5073536;28;19959;-90
2021/07/13 14:17:59;;;;;;;;;;;20.50;99.90;;;;;;5090267;28;20375;-89